Time;durP1;ratioP1;P1;durP2;ratioP2;P2;SDS_P1;SDS_P2;PMS_P1;PMS_P2;Temp;Humidity;BMP_temperature;BMP_pressure;BME280_temperature;BME280_humidity;BME280_pressure;Samples;Min_cycle;Max_cycle;Signal;HPM_P1;HPM_P2
2023/06/08 00:01:08;;;;;;;;;17.00;13.80;;;;;;;;1997704;28;3526287;-79
2023/06/08 00:02:23;;;;;;;;;18.00;15.86;;;;;;;;2007401;28;3562823;-79
2023/06/08 00:03:33;;;;;;;;;14.50;14.50;;;;;;;;1981029;28;2807623;-79
2023/06/08 00:04:45;;;;;;;;;16.40;14.20;;;;;;;;2005619;28;2802496;-79
2023/06/08 00:05:57;;;;;;;;;15.50;14.00;;;;;;;;1978649;28;2797170;-79
2023/06/08 00:07:08;;;;;;;;;15.00;15.00;;;;;;;;1976487;28;3529437;-79
2023/06/08 00:08:23;;;;;;;;;15.86;14.57;;;;;;;;2002354;28;3529437;-79
2023/06/08 00:09:33;;;;;;;;;16.00;16.00;;;;;;;;1985732;28;2814861;-79
2023/06/08 00:10:45;;;;;;;;;19.00;17.40;;;;;;;;2004326;28;3567937;-79
2023/06/08 00:11:58;;;;;;;;;16.60;15.00;;;;;;;;2006670;28;3546023;-79
2023/06/08 00:13:08;;;;;;;;;17.00;14.50;;;;;;;;1988176;28;2814803;-79
2023/06/08 00:14:20;;;;;;;;;16.20;15.20;;;;;;;;1975423;28;3537742;-79
2023/06/08 00:15:33;;;;;;;;;19.00;14.20;;;;;;;;1993667;28;3539789;-79
2023/06/08 00:16:44;;;;;;;;;20.00;15.67;;;;;;;;1987870;28;2824178;-80
2023/06/08 00:17:56;;;;;;;;;16.67;15.00;;;;;;;;1984573;28;2818416;-79
2023/06/08 00:19:08;;;;;;;;;18.00;17.33;;;;;;;;1981892;28;3566887;-79
2023/06/08 00:20:18;;;;;;;;;13.00;11.50;;;;;;;;1987997;28;2785637;-79
2023/06/08 00:21:33;;;;;;;;;17.20;16.40;;;;;;;;1982704;28;3553339;-79
2023/06/08 00:22:47;;;;;;;;;18.00;18.00;;;;;;;;1977017;28;3566863;-79
2023/06/08 00:23:57;;;;;;;;;16.50;14.00;;;;;;;;1983872;28;2814214;-79
2023/06/08 00:25:10;;;;;;;;;13.71;13.00;;;;;;;;1977528;28;2804503;-79
2023/06/08 00:26:22;;;;;;;;;15.67;13.33;;;;;;;;1975807;28;3530493;-79
2023/06/08 00:27:34;;;;;;;;;16.67;16.67;;;;;;;;1999610;28;3556523;-79
2023/06/08 00:28:46;;;;;;;;;17.20;16.40;;;;;;;;1993038;28;3558534;-79
2023/06/08 00:29:57;;;;;;;;;16.67;16.67;;;;;;;;1984372;28;2824202;-79
2023/06/08 00:31:08;;;;;;;;;18.67;17.00;;;;;;;;1983131;28;3566895;-79
2023/06/08 00:32:20;;;;;;;;;15.60;15.00;;;;;;;;2007273;28;3534593;-79
2023/06/08 00:33:36;;;;;;;;;18.00;16.86;;;;;;;;1998592;28;3566928;-79
2023/06/08 00:34:47;;;;;;;;;14.67;14.67;;;;;;;;1978312;28;3536688;-79
2023/06/08 00:36:00;;;;;;;;;14.71;14.71;;;;;;;;2006972;28;3525243;-79
2023/06/08 00:37:11;;;;;;;;;16.00;15.00;;;;;;;;1985786;28;3545044;-79
2023/06/08 00:38:24;;;;;;;;;19.60;15.40;;;;;;;;2008469;28;3558574;-79
2023/06/08 00:39:35;;;;;;;;;17.00;14.67;;;;;;;;1994613;28;3545014;-79
2023/06/08 00:40:47;;;;;;;;;15.00;15.00;;;;;;;;2012320;28;3517943;-79
2023/06/08 00:41:59;;;;;;;;;17.80;15.60;;;;;;;;2013364;28;3554396;-79
2023/06/08 00:43:11;;;;;;;;;15.33;15.00;;;;;;;;1997041;28;2809771;-79
2023/06/08 00:44:21;;;;;;;;;19.50;16.50;;;;;;;;1984992;28;2821136;-79
2023/06/08 00:45:33;;;;;;;;;19.60;18.20;;;;;;;;1985792;28;3566896;-79
2023/06/08 00:46:47;;;;;;;;;19.29;16.86;;;;;;;;2008109;28;3560641;-79
2023/06/08 00:47:57;;;;;;;;;18.50;17.00;;;;;;;;1985524;28;2831508;-79
2023/06/08 00:49:13;;;;;;;;;16.00;16.00;;;;;;;;1972842;28;3546040;-79
2023/06/08 00:50:24;;;;;;;;;15.50;13.50;;;;;;;;1971793;28;2806470;-79
2023/06/08 00:51:39;;;;;;;;;16.00;15.00;;;;;;;;1953574;28;2818993;-79
2023/06/08 00:52:49;;;;;;;;;17.00;16.00;;;;;;;;1974493;28;2833579;-79
2023/06/08 00:54:02;;;;;;;;;16.43;14.57;;;;;;;;1980597;28;3536045;-79
2023/06/08 00:55:16;;;;;;;;;16.60;16.20;;;;;;;;1999333;28;3548147;-79
2023/06/08 00:56:31;;;;;;;;;18.00;18.00;;;;;;;;1982827;28;3561621;-79
2023/06/08 00:57:47;;;;;;;;;18.00;15.33;;;;;;;;1954742;28;3549173;-79
2023/06/08 00:59:00;;;;;;;;;17.00;17.00;;;;;;;;1979339;28;3573227;-79
2023/06/08 01:00:12;;;;;;;;;18.33;17.00;;;;;;;;1975135;28;3569074;-79
2023/06/08 01:01:25;;;;;;;;;17.00;17.00;;;;;;;;1969190;28;3563846;-79
2023/06/08 01:02:36;;;;;;;;;19.33;18.33;;;;;;;;1958197;28;3571078;-79
2023/06/08 01:03:48;;;;;;;;;19.20;17.40;;;;;;;;1986909;28;3571015;-79
2023/06/08 01:05:02;;;;;;;;;17.60;17.40;;;;;;;;1982929;28;3574210;-79
2023/06/08 01:06:13;;;;;;;;;19.00;17.00;;;;;;;;1987174;28;2830439;-79
2023/06/08 01:07:33;;;;;;;;;17.00;17.00;;;;;;;;1965461;28;3559624;-79
2023/06/08 01:09:05;;;;;;;;;20.67;17.00;;;;;;;;1971703;28;3564831;-79
2023/06/08 01:10:28;;;;;;;;;21.00;18.00;;;;;;;;1944714;28;2842007;-79
2023/06/08 01:11:54;;;;;;;;;23.50;17.00;;;;;;;;1949243;28;2848178;-79
2023/06/08 01:13:04;;;;;;;;;16.50;16.00;;;;;;;;1961859;28;2827732;-79
2023/06/08 01:14:27;;;;;;;;;22.00;19.40;;;;;;;;1983987;28;2841000;-79
2023/06/08 01:15:40;;;;;;;;;17.00;17.00;;;;;;;;1978607;28;2828379;-79
2023/06/08 01:16:51;;;;;;;;;21.50;18.00;;;;;;;;1960153;28;2837766;-79
2023/06/08 01:18:04;;;;;;;;;17.60;16.20;;;;;;;;1961381;28;3564832;-79
2023/06/08 01:19:17;;;;;;;;;17.00;16.00;;;;;;;;1987131;28;2825218;-79
2023/06/08 01:20:41;;;;;;;;;22.00;17.67;;;;;;;;1954306;28;3569992;-79
2023/06/08 01:22:00;;;;;;;;;17.00;16.00;;;;;;;;1953700;28;3555505;-79
2023/06/08 01:23:37;;;;;;;;;21.67;19.33;;;;;;;;1983426;28;3575249;-79
2023/06/08 01:24:50;;;;;;;;;16.50;15.00;;;;;;;;1917415;28;2821099;-79
2023/06/08 01:26:03;;;;;;;;;20.33;19.67;;;;;;;;1952300;28;3571130;-79
2023/06/08 01:27:14;;;;;;;;;18.00;18.00;;;;;;;;1954646;28;3577340;-79
2023/06/08 01:28:28;;;;;;;;;17.29;14.86;;;;;;;;1982642;28;3548146;-79
2023/06/08 01:29:41;;;;;;;;;22.00;19.33;;;;;;;;1958330;28;3583561;-79
2023/06/08 01:30:52;;;;;;;;;21.00;18.50;;;;;;;;1953058;28;2838824;-79
2023/06/08 01:32:04;;;;;;;;;21.40;19.80;;;;;;;;1973990;28;3573153;-79
2023/06/08 01:33:17;;;;;;;;;21.33;21.00;;;;;;;;1997399;28;3566887;-79
2023/06/08 01:34:29;;;;;;;;;20.33;19.00;;;;;;;;1952970;28;3574208;-79
2023/06/08 01:35:41;;;;;;;;;16.50;16.50;;;;;;;;1959927;28;2829461;-79
2023/06/08 01:36:58;;;;;;;;;16.20;14.20;;;;;;;;1973106;28;3536693;-79
2023/06/08 01:38:20;;;;;;;;;19.00;16.50;;;;;;;;1983370;28;2831493;-79
2023/06/08 01:39:35;;;;;;;;;21.00;17.50;;;;;;;;1961945;28;2842056;-79
2023/06/08 01:40:49;;;;;;;;;16.50;16.50;;;;;;;;1960546;28;2822129;-79
2023/06/08 01:42:02;;;;;;;;;22.00;18.00;;;;;;;;1979556;28;3573170;-79
2023/06/08 01:43:14;;;;;;;;;21.00;18.00;;;;;;;;1959447;28;3577343;-79
2023/06/08 01:44:27;;;;;;;;;19.20;19.20;;;;;;;;1967911;28;3576270;-79
2023/06/08 01:45:44;;;;;;;;;17.67;17.67;;;;;;;;1958230;28;3565850;-79
2023/06/08 01:46:56;;;;;;;;;17.00;17.00;;;;;;;;1957750;28;3557529;-79
2023/06/08 01:48:07;;;;;;;;;23.00;19.00;;;;;;;;1959936;28;2834617;-79
2023/06/08 01:49:19;;;;;;;;;20.50;18.00;;;;;;;;1978991;28;2834064;-79
2023/06/08 01:50:31;;;;;;;;;21.00;18.33;;;;;;;;1957420;28;3593966;-79
2023/06/08 01:51:43;;;;;;;;;17.67;17.67;;;;;;;;1960724;28;3566916;-79
2023/06/08 01:52:58;;;;;;;;;18.80;18.60;;;;;;;;1967282;28;2835682;-79
2023/06/08 01:54:09;;;;;;;;;21.33;18.67;;;;;;;;1974854;28;3579918;-79
2023/06/08 01:55:27;;;;;;;;;16.71;16.57;;;;;;;;1976169;28;3553400;-79
2023/06/08 01:56:39;;;;;;;;;19.00;16.50;;;;;;;;1984905;28;2827346;-79
2023/06/08 01:57:50;;;;;;;;;20.00;18.50;;;;;;;;1960335;28;2834641;-79
2023/06/08 01:59:02;;;;;;;;;18.60;17.40;;;;;;;;1972451;28;3565849;-79
2023/06/08 02:00:14;;;;;;;;;25.50;21.00;;;;;;;;1985299;28;2835667;-79
2023/06/08 02:01:25;;;;;;;;;17.67;16.33;;;;;;;;1964254;28;2827326;-79
2023/06/08 02:02:37;;;;;;;;;17.67;17.67;;;;;;;;1976388;28;3571093;-79
2023/06/08 02:03:48;;;;;;;;;17.20;15.80;;;;;;;;1971046;28;3546103;-79
2023/06/08 02:04:59;;;;;;;;;21.60;21.00;;;;;;;;1993123;28;2845107;-79
2023/06/08 02:06:11;;;;;;;;;19.00;19.00;;;;;;;;1985252;28;3581474;-79
2023/06/08 02:07:22;;;;;;;;;21.00;20.60;;;;;;;;1968626;28;2830434;-79
2023/06/08 02:08:33;;;;;;;;;21.33;19.00;;;;;;;;1982276;28;3572083;-79
2023/06/08 02:09:45;;;;;;;;;21.80;18.60;;;;;;;;1987767;28;3573146;-79
2023/06/08 02:10:57;;;;;;;;;18.80;18.40;;;;;;;;1988328;28;3570009;-79
2023/06/08 02:12:10;;;;;;;;;18.00;18.00;;;;;;;;1986958;28;3566859;-79
2023/06/08 02:13:21;;;;;;;;;16.00;16.00;;;;;;;;1982038;28;3564835;-79
2023/06/08 02:14:34;;;;;;;;;27.40;23.00;;;;;;;;1986248;28;3596078;-79
2023/06/08 02:15:45;;;;;;;;;23.33;19.00;;;;;;;;1945938;28;3586698;-79
2023/06/08 02:16:56;;;;;;;;;19.20;19.20;;;;;;;;1959364;28;2838857;-79
2023/06/08 02:18:07;;;;;;;;;21.00;21.00;;;;;;;;1983204;28;3575229;-79
2023/06/08 02:19:22;;;;;;;;;21.60;19.40;;;;;;;;1982274;28;3572442;-79
2023/06/08 02:20:33;;;;;;;;;23.67;19.67;;;;;;;;1978617;28;2843985;-79
2023/06/08 02:21:45;;;;;;;;;24.00;22.33;;;;;;;;1975985;28;3583597;-79
2023/06/08 02:22:56;;;;;;;;;21.40;20.00;;;;;;;;1970723;28;2837834;-79
2023/06/08 02:24:07;;;;;;;;;18.00;17.00;;;;;;;;1985733;28;3569981;-79
2023/06/08 02:25:18;;;;;;;;;23.60;23.00;;;;;;;;1970011;28;2846148;-79
2023/06/08 02:26:29;;;;;;;;;18.67;17.67;;;;;;;;1987335;28;3573162;-79
2023/06/08 02:27:43;;;;;;;;;19.60;18.20;;;;;;;;1987355;28;3573141;-79
2023/06/08 02:28:54;;;;;;;;;21.00;21.00;;;;;;;;1958574;28;3579746;-79
2023/06/08 02:30:08;;;;;;;;;20.80;18.80;;;;;;;;1983040;28;3573113;-79
2023/06/08 02:31:19;;;;;;;;;23.67;21.33;;;;;;;;1958733;28;3576262;-79
2023/06/08 02:32:32;;;;;;;;;22.20;20.20;;;;;;;;1984129;28;3570005;-79
2023/06/08 02:33:44;;;;;;;;;18.00;17.67;;;;;;;;1981943;28;3570051;-79
2023/06/08 02:34:56;;;;;;;;;19.40;19.40;;;;;;;;1981630;28;3572076;-79
2023/06/08 02:36:09;;;;;;;;;23.40;21.60;;;;;;;;1969824;28;2837869;-79
2023/06/08 02:37:19;;;;;;;;;17.50;16.50;;;;;;;;1983136;28;2831497;-79
2023/06/08 02:38:31;;;;;;;;;21.67;21.67;;;;;;;;1975000;28;3577311;-79
2023/06/08 02:39:43;;;;;;;;;24.20;22.00;;;;;;;;1988276;28;3572107;-79
2023/06/08 02:40:55;;;;;;;;;22.40;20.60;;;;;;;;1987933;28;3575252;-79
2023/06/08 02:42:07;;;;;;;;;22.80;19.20;;;;;;;;1988348;28;3569978;-79
2023/06/08 02:43:19;;;;;;;;;23.20;22.40;;;;;;;;1983669;28;3575194;-79
2023/06/08 02:44:31;;;;;;;;;22.80;21.60;;;;;;;;1978951;28;3571019;-79
2023/06/08 02:45:44;;;;;;;;;23.43;20.29;;;;;;;;1983143;28;3583546;-79
2023/06/08 02:46:55;;;;;;;;;21.20;20.40;;;;;;;;1958012;28;2843112;-79
2023/06/08 02:48:08;;;;;;;;;26.38;21.88;;;;;;;;2002227;28;3589827;-79
2023/06/08 02:49:20;;;;;;;;;24.67;23.00;;;;;;;;1977657;28;3575204;-79
2023/06/08 02:50:32;;;;;;;;;22.20;19.60;;;;;;;;1970763;28;3573137;-79
2023/06/08 02:51:43;;;;;;;;;27.80;24.40;;;;;;;;1967937;28;2850363;-79
2023/06/08 02:52:55;;;;;;;;;23.40;20.00;;;;;;;;2009659;28;3587741;-79
2023/06/08 02:54:05;;;;;;;;;23.40;22.40;;;;;;;;1992207;28;2843043;-79
2023/06/08 02:55:16;;;;;;;;;29.50;23.00;;;;;;;;1984817;28;2506501;-79
2023/06/08 02:56:27;;;;;;;;;23.40;18.60;;;;;;;;1969644;28;2832570;-79
2023/06/08 02:57:38;;;;;;;;;26.20;26.20;;;;;;;;1993789;28;2852442;-79
2023/06/08 02:58:50;;;;;;;;;23.67;21.00;;;;;;;;1982833;28;3574214;-79
2023/06/08 03:00:03;;;;;;;;;24.40;24.40;;;;;;;;1973134;28;3582879;-79
2023/06/08 03:01:16;;;;;;;;;22.50;21.00;;;;;;;;1951726;28;2842954;-79
2023/06/08 03:02:28;;;;;;;;;27.00;22.67;;;;;;;;1961633;28;3592896;-79
2023/06/08 03:03:45;;;;;;;;;24.29;23.71;;;;;;;;1980968;28;3587704;-79
2023/06/08 03:04:58;;;;;;;;;22.50;19.00;;;;;;;;1960671;28;2841963;-79
2023/06/08 03:06:09;;;;;;;;;21.00;21.00;;;;;;;;1962196;28;2844004;-79
2023/06/08 03:07:21;;;;;;;;;23.67;21.67;;;;;;;;1968265;28;3576234;-79
2023/06/08 03:08:32;;;;;;;;;21.67;21.67;;;;;;;;1962909;28;3583605;-79
2023/06/08 03:09:46;;;;;;;;;25.88;23.00;;;;;;;;1982996;28;3598136;-79
2023/06/08 03:10:57;;;;;;;;;28.67;23.33;;;;;;;;1981500;28;3594013;-79
2023/06/08 03:12:13;;;;;;;;;23.20;22.60;;;;;;;;1984337;28;3583900;-79
2023/06/08 03:13:24;;;;;;;;;24.00;23.33;;;;;;;;1960647;28;3579355;-79
2023/06/08 03:14:40;;;;;;;;;24.71;23.00;;;;;;;;1986026;28;3585633;-79
2023/06/08 03:15:52;;;;;;;;;28.33;26.67;;;;;;;;1954099;28;3598191;-79
2023/06/08 03:17:03;;;;;;;;;25.00;21.00;;;;;;;;1960759;28;2845076;-79
2023/06/08 03:18:16;;;;;;;;;25.33;23.67;;;;;;;;1969424;28;3585630;-79
2023/06/08 03:19:30;;;;;;;;;25.33;24.00;;;;;;;;1948347;28;3586765;-79
2023/06/08 03:20:42;;;;;;;;;26.00;24.00;;;;;;;;1961037;28;3578405;-79
2023/06/08 03:21:53;;;;;;;;;24.00;22.33;;;;;;;;1967300;28;3575257;-79
2023/06/08 03:23:07;;;;;;;;;24.00;24.00;;;;;;;;1983784;28;3589783;-79
2023/06/08 03:24:20;;;;;;;;;24.33;22.33;;;;;;;;1953173;28;3580441;-79
2023/06/08 03:25:31;;;;;;;;;28.50;24.00;;;;;;;;1956689;28;2860678;-79
2023/06/08 03:26:42;;;;;;;;;25.67;23.33;;;;;;;;1974156;28;3595019;-79
2023/06/08 03:27:55;;;;;;;;;27.71;23.43;;;;;;;;1985534;28;3581486;-79
2023/06/08 03:29:07;;;;;;;;;25.20;25.20;;;;;;;;1979224;28;3596018;-79
2023/06/08 03:30:18;;;;;;;;;24.80;22.40;;;;;;;;1988331;28;2850686;-79
2023/06/08 03:31:36;;;;;;;;;24.00;22.00;;;;;;;;1983017;28;3580528;-79
2023/06/08 03:32:48;;;;;;;;;22.50;22.50;;;;;;;;1961590;28;2845060;-79
2023/06/08 03:34:00;;;;;;;;;28.00;26.00;;;;;;;;1960328;28;3597134;-79
2023/06/08 03:35:11;;;;;;;;;28.60;25.60;;;;;;;;1960556;28;2844085;-79
2023/06/08 03:36:33;;;;;;;;;25.00;23.80;;;;;;;;1983849;28;2851406;-79
2023/06/08 03:37:44;;;;;;;;;24.67;24.33;;;;;;;;1983984;28;3581486;-79
2023/06/08 03:38:56;;;;;;;;;31.40;25.60;;;;;;;;1986101;28;3608623;-79
2023/06/08 03:40:09;;;;;;;;;29.29;27.43;;;;;;;;1978442;28;3591894;-79
2023/06/08 03:41:22;;;;;;;;;33.71;29.57;;;;;;;;1972653;28;3591915;-79
2023/06/08 03:42:34;;;;;;;;;23.67;21.00;;;;;;;;1977591;28;3561016;-79
2023/06/08 03:43:45;;;;;;;;;27.00;25.20;;;;;;;;1991674;28;2847249;-79
2023/06/08 03:44:56;;;;;;;;;27.40;26.00;;;;;;;;1989490;28;2849374;-79
2023/06/08 03:46:07;;;;;;;;;26.60;26.60;;;;;;;;1989648;28;3583876;-79
2023/06/08 03:47:19;;;;;;;;;29.60;27.20;;;;;;;;1989543;28;3589776;-79
2023/06/08 03:48:33;;;;;;;;;33.50;26.75;;;;;;;;1983952;28;3606450;-79
2023/06/08 03:49:43;;;;;;;;;30.50;26.00;;;;;;;;1983719;28;2861747;-79
2023/06/08 03:50:55;;;;;;;;;28.00;27.00;;;;;;;;1985912;28;3595355;-79
2023/06/08 03:52:07;;;;;;;;;30.00;25.00;;;;;;;;1984335;28;3590856;-79
2023/06/08 03:53:19;;;;;;;;;26.80;24.60;;;;;;;;1974998;28;3572060;-79
2023/06/08 03:54:31;;;;;;;;;26.80;23.60;;;;;;;;1965996;28;3591867;-79
2023/06/08 03:55:43;;;;;;;;;27.80;27.80;;;;;;;;1988897;28;3589795;-79
2023/06/08 03:56:55;;;;;;;;;28.00;26.40;;;;;;;;1985514;28;3587712;-79
2023/06/08 03:58:07;;;;;;;;;33.33;27.67;;;;;;;;1971528;28;3598162;-79
2023/06/08 03:59:20;;;;;;;;;30.86;29.14;;;;;;;;1983340;28;3586721;-79
2023/06/08 04:00:31;;;;;;;;;28.60;27.60;;;;;;;;1966461;28;2845485;-79
2023/06/08 04:01:45;;;;;;;;;32.20;27.40;;;;;;;;2009154;28;3596098;-79
2023/06/08 04:02:57;;;;;;;;;27.67;25.00;;;;;;;;1979078;28;3581487;-79
2023/06/08 04:04:08;;;;;;;;;27.33;24.33;;;;;;;;1959197;28;3590896;-79
2023/06/08 04:05:21;;;;;;;;;29.00;29.00;;;;;;;;1977496;28;3587705;-79
2023/06/08 04:06:33;;;;;;;;;30.00;27.40;;;;;;;;1980234;28;3593314;-79
2023/06/08 04:07:47;;;;;;;;;29.00;25.50;;;;;;;;1998849;28;2506510;-79
2023/06/08 04:08:58;;;;;;;;;25.00;25.00;;;;;;;;1963765;28;2853388;-79
2023/06/08 04:10:10;;;;;;;;;28.60;27.40;;;;;;;;1984195;28;3596033;-79
2023/06/08 04:11:21;;;;;;;;;26.80;26.40;;;;;;;;2006519;28;3590820;-79
2023/06/08 04:12:34;;;;;;;;;28.57;26.43;;;;;;;;1984670;28;3591960;-79
2023/06/08 04:13:46;;;;;;;;;30.00;27.20;;;;;;;;1985507;28;3598156;-79
2023/06/08 04:15:01;;;;;;;;;31.14;29.43;;;;;;;;2006901;28;3600204;-79
2023/06/08 04:16:12;;;;;;;;;25.00;25.00;;;;;;;;1952644;28;3596077;-79
2023/06/08 04:17:27;;;;;;;;;33.80;27.20;;;;;;;;1973774;28;3614803;-79
2023/06/08 04:18:41;;;;;;;;;33.50;26.50;;;;;;;;1963214;28;2853343;-79
2023/06/08 04:19:53;;;;;;;;;28.00;27.00;;;;;;;;1954254;28;3588770;-79
2023/06/08 04:21:05;;;;;;;;;28.80;26.20;;;;;;;;1971043;28;3593981;-79
2023/06/08 04:22:16;;;;;;;;;33.00;27.50;;;;;;;;1964279;28;2853772;-79
2023/06/08 04:23:30;;;;;;;;;28.88;25.75;;;;;;;;1982158;28;3606466;-79
2023/06/08 04:24:40;;;;;;;;;28.50;27.00;;;;;;;;1976095;28;2849215;-79
2023/06/08 04:25:52;;;;;;;;;31.60;29.80;;;;;;;;1974659;28;3601237;-79
2023/06/08 04:27:07;;;;;;;;;30.40;30.20;;;;;;;;1986415;28;3591892;-79
2023/06/08 04:28:19;;;;;;;;;29.00;26.67;;;;;;;;1951732;28;3586639;-79
2023/06/08 04:29:30;;;;;;;;;28.00;25.00;;;;;;;;1956299;28;2848162;-79
2023/06/08 04:30:44;;;;;;;;;29.20;26.60;;;;;;;;1966885;28;3599142;-78
2023/06/08 04:31:55;;;;;;;;;34.67;29.00;;;;;;;;1962432;28;3596045;-79
2023/06/08 04:33:09;;;;;;;;;30.75;25.25;;;;;;;;1970647;28;3608627;-79
2023/06/08 04:34:20;;;;;;;;;33.40;30.40;;;;;;;;1978687;28;3574226;-79
2023/06/08 04:35:32;;;;;;;;;31.40;28.40;;;;;;;;1988532;28;3597076;-79
2023/06/08 04:36:44;;;;;;;;;27.60;26.40;;;;;;;;1984296;28;3589839;-79
2023/06/08 04:37:56;;;;;;;;;32.00;29.60;;;;;;;;1987174;28;3593037;-79
2023/06/08 04:39:08;;;;;;;;;32.00;27.60;;;;;;;;1982318;28;3591906;-79
2023/06/08 04:40:20;;;;;;;;;33.20;30.80;;;;;;;;1974091;28;3579364;-79
2023/06/08 04:41:33;;;;;;;;;33.40;32.20;;;;;;;;1976748;28;3603424;-79
2023/06/08 04:42:44;;;;;;;;;36.80;31.60;;;;;;;;1965189;28;3607522;-79
2023/06/08 04:44:01;;;;;;;;;34.60;30.00;;;;;;;;1983060;28;3600259;-79
2023/06/08 04:45:12;;;;;;;;;27.00;26.00;;;;;;;;1961123;28;2836728;-79
2023/06/08 04:46:25;;;;;;;;;24.00;24.00;;;;;;;;1961051;28;2846060;-79
2023/06/08 04:47:37;;;;;;;;;35.33;31.00;;;;;;;;1982344;28;2848142;-79
2023/06/08 04:48:49;;;;;;;;;26.00;24.00;;;;;;;;1984324;28;3593930;-79
2023/06/08 04:50:07;;;;;;;;;30.20;25.80;;;;;;;;1988921;28;3575537;-79
2023/06/08 04:51:17;;;;;;;;;29.50;29.50;;;;;;;;1985642;28;2852340;-79
2023/06/08 04:52:30;;;;;;;;;34.80;31.80;;;;;;;;1977994;28;3598180;-78
2023/06/08 04:53:42;;;;;;;;;32.60;24.80;;;;;;;;1978838;28;3606499;-79
2023/06/08 04:54:52;;;;;;;;;28.50;28.00;;;;;;;;1953113;28;2845014;-79
2023/06/08 04:56:04;;;;;;;;;34.20;29.80;;;;;;;;1981359;28;3587735;-79
2023/06/08 04:57:17;;;;;;;;;33.00;29.67;;;;;;;;1963354;28;3587108;-79
2023/06/08 04:58:29;;;;;;;;;27.33;25.67;;;;;;;;1960762;28;3595045;-79
2023/06/08 04:59:40;;;;;;;;;32.00;29.00;;;;;;;;1961280;28;2858591;-79
2023/06/08 05:00:52;;;;;;;;;31.20;28.00;;;;;;;;1961217;28;3594061;-79
2023/06/08 05:02:03;;;;;;;;;33.20;28.80;;;;;;;;1983587;28;3590830;-79
2023/06/08 05:03:15;;;;;;;;;33.00;29.80;;;;;;;;1975183;28;3583585;-79
2023/06/08 05:04:26;;;;;;;;;32.20;28.40;;;;;;;;1961916;28;2839902;-79
2023/06/08 05:05:37;;;;;;;;;31.40;28.80;;;;;;;;1983061;28;3596056;-79
2023/06/08 05:06:50;;;;;;;;;31.80;29.80;;;;;;;;1994482;28;3596042;-79
2023/06/08 05:08:02;;;;;;;;;31.43;29.57;;;;;;;;1970030;28;3587732;-79
2023/06/08 05:09:14;;;;;;;;;31.20;28.40;;;;;;;;1979134;28;3604390;-79
2023/06/08 05:10:26;;;;;;;;;33.20;31.20;;;;;;;;1984955;28;3563796;-79
2023/06/08 05:11:38;;;;;;;;;36.80;32.20;;;;;;;;2004740;28;3599145;-79
2023/06/08 05:12:52;;;;;;;;;38.20;31.20;;;;;;;;1973883;28;3606444;-79
2023/06/08 05:14:03;;;;;;;;;30.00;28.50;;;;;;;;1955389;28;2850294;-79
2023/06/08 05:15:15;;;;;;;;;36.40;30.60;;;;;;;;1982319;28;3600739;-79
2023/06/08 05:16:27;;;;;;;;;33.80;31.20;;;;;;;;1980714;28;3579395;-79
2023/06/08 05:17:39;;;;;;;;;31.80;29.60;;;;;;;;1987324;28;3583529;-79
2023/06/08 05:18:51;;;;;;;;;31.00;29.60;;;;;;;;1983916;28;3581450;-79
2023/06/08 05:20:03;;;;;;;;;31.20;29.00;;;;;;;;1984558;28;3575330;-78
2023/06/08 05:21:15;;;;;;;;;33.60;27.00;;;;;;;;1978985;28;3605917;-78
2023/06/08 05:22:28;;;;;;;;;29.20;26.60;;;;;;;;1987329;28;3599175;-78
2023/06/08 05:23:39;;;;;;;;;33.50;32.00;;;;;;;;1947658;28;2851252;-78
2023/06/08 05:24:50;;;;;;;;;29.67;27.33;;;;;;;;1951186;28;3579410;-79
2023/06/08 05:26:02;;;;;;;;;33.80;32.40;;;;;;;;1981051;28;3584562;-79
2023/06/08 05:27:14;;;;;;;;;30.60;26.60;;;;;;;;1978309;28;3603357;-79
2023/06/08 05:28:26;;;;;;;;;33.60;31.60;;;;;;;;1972298;28;3577312;-78
2023/06/08 05:29:38;;;;;;;;;34.60;32.00;;;;;;;;2003837;28;3600260;-79
2023/06/08 05:30:50;;;;;;;;;34.60;30.60;;;;;;;;1966881;28;3583589;-78
2023/06/08 05:32:02;;;;;;;;;40.20;34.00;;;;;;;;1986157;28;3610623;-79
2023/06/08 05:33:14;;;;;;;;;34.40;31.60;;;;;;;;1971598;28;3595004;-79
2023/06/08 05:34:26;;;;;;;;;28.00;27.67;;;;;;;;1970919;28;3580449;-78
2023/06/08 05:35:38;;;;;;;;;36.60;33.00;;;;;;;;1974584;28;3602334;-79
2023/06/08 05:36:51;;;;;;;;;32.71;29.14;;;;;;;;1980314;28;3585664;-79
2023/06/08 05:38:03;;;;;;;;;39.20;30.60;;;;;;;;1984293;28;3608553;-79
2023/06/08 05:39:15;;;;;;;;;36.00;31.80;;;;;;;;1985477;28;3597094;-79
2023/06/08 05:40:27;;;;;;;;;40.80;34.60;;;;;;;;1983575;28;3588764;-79
2023/06/08 05:41:40;;;;;;;;;33.25;28.63;;;;;;;;1973209;28;3599170;-79
2023/06/08 05:42:51;;;;;;;;;34.50;30.00;;;;;;;;1966757;28;2863866;-79
2023/06/08 05:44:03;;;;;;;;;31.60;29.20;;;;;;;;1978381;28;3586695;-79
2023/06/08 05:45:16;;;;;;;;;40.80;33.60;;;;;;;;1996895;28;3606511;-79
2023/06/08 05:46:26;;;;;;;;;35.00;31.00;;;;;;;;1955907;28;2851295;-79
2023/06/08 05:47:38;;;;;;;;;39.40;34.20;;;;;;;;1984505;28;3603435;-79
2023/06/08 05:48:50;;;;;;;;;40.40;34.20;;;;;;;;1982331;28;3609569;-79
2023/06/08 05:50:02;;;;;;;;;38.80;35.20;;;;;;;;1988631;28;3593934;-79
2023/06/08 05:51:14;;;;;;;;;27.20;27.20;;;;;;;;1979611;28;3596069;-79
2023/06/08 05:52:26;;;;;;;;;31.80;29.00;;;;;;;;1983792;28;3600689;-79
2023/06/08 05:53:39;;;;;;;;;36.80;31.20;;;;;;;;1985005;28;3598160;-80
2023/06/08 05:54:50;;;;;;;;;27.60;26.60;;;;;;;;1964399;28;3592924;-77
2023/06/08 05:56:02;;;;;;;;;39.00;33.40;;;;;;;;1996565;28;3612090;-77
2023/06/08 05:57:14;;;;;;;;;31.20;30.20;;;;;;;;1973787;28;3570052;-76
2023/06/08 05:58:26;;;;;;;;;37.80;32.00;;;;;;;;1969243;28;3582624;-77
2023/06/08 05:59:38;;;;;;;;;37.00;31.60;;;;;;;;1972096;28;3602372;-77
2023/06/08 06:00:52;;;;;;;;;37.60;34.60;;;;;;;;1973702;28;3590830;-77
2023/06/08 06:02:03;;;;;;;;;42.00;34.00;;;;;;;;1952387;28;2847128;-77
2023/06/08 06:03:15;;;;;;;;;43.00;33.40;;;;;;;;1975797;28;3602330;-76
2023/06/08 06:04:27;;;;;;;;;39.80;33.80;;;;;;;;1980899;28;3580477;-76
2023/06/08 06:05:38;;;;;;;;;32.60;30.80;;;;;;;;2005565;28;3596068;-76
2023/06/08 06:06:50;;;;;;;;;38.20;32.80;;;;;;;;1982255;28;3609980;-76
2023/06/08 06:08:02;;;;;;;;;39.40;33.40;;;;;;;;1987428;28;3611675;-76
2023/06/08 06:09:14;;;;;;;;;44.40;34.20;;;;;;;;1982113;28;3619987;-76
2023/06/08 06:10:27;;;;;;;;;33.80;28.60;;;;;;;;1971520;28;3608620;-76
2023/06/08 06:11:38;;;;;;;;;42.20;34.60;;;;;;;;1962610;28;3611682;-76
2023/06/08 06:12:50;;;;;;;;;44.40;35.00;;;;;;;;1979125;28;3588805;-76
2023/06/08 06:14:02;;;;;;;;;37.60;33.20;;;;;;;;1983771;28;3595007;-76
2023/06/08 06:15:14;;;;;;;;;38.00;32.80;;;;;;;;1984140;28;3614852;-76
2023/06/08 06:16:26;;;;;;;;;37.20;34.00;;;;;;;;1987812;28;3584587;-76
2023/06/08 06:17:38;;;;;;;;;38.80;34.20;;;;;;;;1987060;28;3607527;-76
2023/06/08 06:18:50;;;;;;;;;35.40;32.20;;;;;;;;1986762;28;3587720;-76
2023/06/08 06:20:05;;;;;;;;;43.80;34.80;;;;;;;;1980289;28;3600297;-77
2023/06/08 06:21:16;;;;;;;;;37.00;33.00;;;;;;;;1954409;28;2858575;-76
2023/06/08 06:22:27;;;;;;;;;43.60;36.80;;;;;;;;1980398;28;3573144;-76
2023/06/08 06:23:40;;;;;;;;;39.40;34.80;;;;;;;;2012592;28;3602283;-76
2023/06/08 06:24:51;;;;;;;;;38.40;34.40;;;;;;;;1975272;28;3581498;-76
2023/06/08 06:26:03;;;;;;;;;39.60;35.60;;;;;;;;2004281;28;3576239;-76
2023/06/08 06:27:15;;;;;;;;;42.80;34.20;;;;;;;;1996121;28;3607496;-76
2023/06/08 06:28:27;;;;;;;;;35.40;31.00;;;;;;;;1982967;28;3579380;-76
2023/06/08 06:29:39;;;;;;;;;44.40;34.00;;;;;;;;1979979;28;3614159;-76
2023/06/08 06:30:51;;;;;;;;;32.20;26.80;;;;;;;;1978457;28;3596022;-76
2023/06/08 06:32:03;;;;;;;;;32.20;29.60;;;;;;;;1988187;28;3561082;-76
2023/06/08 06:33:15;;;;;;;;;42.00;35.40;;;;;;;;1999803;28;3575208;-76
2023/06/08 06:34:27;;;;;;;;;36.20;32.40;;;;;;;;2009202;28;3594986;-76
2023/06/08 06:35:39;;;;;;;;;47.20;37.20;;;;;;;;1970266;28;3597106;-78
2023/06/08 06:36:51;;;;;;;;;48.80;38.60;;;;;;;;1964095;28;3601230;-78
2023/06/08 06:38:03;;;;;;;;;41.20;36.00;;;;;;;;1980197;28;3612691;-79
2023/06/08 06:39:15;;;;;;;;;43.80;37.00;;;;;;;;1978826;28;3586049;-79
2023/06/08 06:40:27;;;;;;;;;39.20;34.00;;;;;;;;1980160;28;3579387;-78
2023/06/08 06:41:39;;;;;;;;;37.40;33.80;;;;;;;;2012419;28;3603360;-78
2023/06/08 06:42:51;;;;;;;;;40.80;34.20;;;;;;;;1973988;28;3619057;-78
2023/06/08 06:44:03;;;;;;;;;49.40;38.00;;;;;;;;1975125;28;3611661;-78
2023/06/08 06:45:15;;;;;;;;;42.60;35.00;;;;;;;;1982237;28;3559657;-78
2023/06/08 06:46:27;;;;;;;;;47.40;36.80;;;;;;;;2007604;28;3585626;-78
2023/06/08 06:47:39;;;;;;;;;40.00;33.60;;;;;;;;1979858;28;3608584;-78
2023/06/08 06:48:51;;;;;;;;;39.00;34.80;;;;;;;;1975683;28;3581435;-78
2023/06/08 06:50:03;;;;;;;;;46.00;37.00;;;;;;;;1969411;28;3572097;-78